Time;durP1;ratioP1;P1;durP2;ratioP2;P2;SDS_P1;SDS_P2;PMS_P1;PMS_P2;Temp;Humidity;BMP_temperature;BMP_pressure;BME280_temperature;BME280_humidity;BME280_pressure;Samples;Min_cycle;Max_cycle;Signal;HPM_P1;HPM_P2
2022/05/28 00:02:12;;;;;;;;;3.00;1.00;21.50;99.90;;;;;;5015731;28;9586;-60
2022/05/28 00:04:42;;;;;;;;;2.75;2.75;21.50;99.90;;;;;;5012659;28;9642;-57
2022/05/28 00:07:12;;;;;;;;;2.00;2.00;21.60;99.90;;;;;;5014659;28;8892;-58
2022/05/28 00:09:42;;;;;;;;;0.00;0.00;21.70;99.90;;;;;;5009260;28;9731;-61
2022/05/28 00:12:24;;;;;;;;;1.33;1.33;21.70;99.90;;;;;;5014690;28;8830;-60
2022/05/28 00:14:53;;;;;;;;;2.50;2.50;21.70;99.90;;;;;;5008369;28;9866;-59
2022/05/28 00:17:23;;;;;;;;;1.00;1.00;21.60;99.90;;;;;;5016177;28;8917;-60
2022/05/28 00:19:54;;;;;;;;;2.00;2.00;21.60;99.90;;;;;;5012845;28;8888;-61
2022/05/28 00:22:25;;;;;;;;;1.75;1.75;21.50;99.90;;;;;;5016924;28;9695;-60
2022/05/28 00:24:58;;;;;;;;;1.75;1.75;21.50;99.90;;;;;;5011844;28;8841;-61
2022/05/28 00:27:30;;;;;;;;;1.00;1.00;21.50;99.90;;;;;;5012040;28;8860;-59
2022/05/28 00:30:01;;;;;;;;;1.00;1.00;21.60;99.90;;;;;;5011747;28;9371;-58
2022/05/28 00:32:33;;;;;;;;;1.00;1.00;21.60;99.90;;;;;;5029827;28;8829;-60
2022/05/28 00:35:04;;;;;;;;;1.50;1.50;21.70;99.90;;;;;;5014116;28;8876;-59
2022/05/28 00:37:35;;;;;;;;;1.75;1.75;21.70;99.90;;;;;;5013926;28;8884;-59
2022/05/28 00:40:11;;;;;;;;;1.00;1.00;21.60;99.90;;;;;;5015698;28;8829;-60
2022/05/28 00:42:40;;;;;;;;;2.00;2.00;21.60;99.90;;;;;;5010138;28;8857;-59
2022/05/28 00:45:11;;;;;;;;;1.00;1.00;21.50;99.90;;;;;;5010218;28;8838;-58
2022/05/28 00:47:49;;;;;;;;;1.00;1.00;21.50;99.90;;;;;;5009055;28;9775;-60
2022/05/28 00:50:21;;;;;;;;;2.00;2.00;21.50;99.90;;;;;;5015268;28;8872;-60
2022/05/28 00:52:51;;;;;;;;;3.50;3.50;21.50;99.90;;;;;;5013372;28;8805;-60
2022/05/28 00:55:21;;;;;;;;;2.00;2.00;21.50;99.90;;;;;;5014991;28;8871;-60
2022/05/28 00:57:51;;;;;;;;;2.00;2.00;21.40;99.90;;;;;;5010335;28;9548;-59
2022/05/28 01:00:23;;;;;;;;;1.00;1.00;21.40;99.90;;;;;;5011037;28;8896;-60
2022/05/28 01:03:22;;;;;;;;;2.00;2.00;21.30;99.90;;;;;;5006191;28;8859;-60
2022/05/28 01:06:17;;;;;;;;;2.00;2.00;21.30;99.90;;;;;;5015827;28;8865;-60
2022/05/28 01:08:58;;;;;;;;;1.50;1.00;21.30;99.90;;;;;;5017559;28;8875;-60
2022/05/28 01:11:34;;;;;;;;;2.00;2.00;21.20;99.90;;;;;;5012615;28;9003;-60
2022/05/28 01:14:24;;;;;;;;;1.67;1.67;21.20;99.90;;;;;;5010356;28;8935;-61
2022/05/28 01:17:45;;;;;;;;;2.00;2.00;21.10;99.90;;;;;;5019068;28;9058;-61
2022/05/28 01:20:35;;;;;;;;;1.00;1.00;20.90;99.90;;;;;;5008326;28;8973;-60
2022/05/28 01:23:17;;;;;;;;;2.00;2.00;20.90;99.90;;;;;;5017935;28;8962;-59
2022/05/28 01:25:56;;;;;;;;;1.00;1.00;20.80;99.90;;;;;;5014797;28;8937;-61
2022/05/28 01:28:33;;;;;;;;;1.67;1.67;20.70;99.90;;;;;;5020240;28;9013;-59
2022/05/28 01:31:05;;;;;;;;;1.00;1.00;20.80;99.90;;;;;;5015759;28;9648;-60
2022/05/28 01:33:41;;;;;;;;;1.00;1.00;20.70;99.90;;;;;;5017253;28;10924;-61
2022/05/28 01:36:17;;;;;;;;;2.00;2.00;20.60;99.90;;;;;;5018599;28;8927;-60
2022/05/28 01:38:48;;;;;;;;;1.00;1.00;20.70;99.90;;;;;;5012118;28;9016;-61
2022/05/28 01:41:19;;;;;;;;;1.33;1.33;20.80;99.90;;;;;;5012735;28;9060;-61
2022/05/28 01:43:51;;;;;;;;;1.00;1.00;20.70;99.90;;;;;;5018276;28;9321;-60
2022/05/28 01:46:28;;;;;;;;;1.00;1.00;20.80;99.90;;;;;;5012019;28;9306;-61
2022/05/28 01:49:01;;;;;;;;;0.00;0.00;20.60;99.90;;;;;;5017542;28;9021;-61
2022/05/28 01:51:37;;;;;;;;;1.33;1.33;20.50;99.90;;;;;;5018541;28;8882;-61
2022/05/28 01:54:11;;;;;;;;;2.00;2.00;20.50;99.90;;;;;;5010976;28;9188;-60
2022/05/28 01:56:45;;;;;;;;;1.67;1.67;20.50;99.90;;;;;;5016479;28;9121;-61
2022/05/28 01:59:18;;;;;;;;;3.00;3.00;20.50;99.90;;;;;;5012882;28;9528;-59
2022/05/28 02:01:49;;;;;;;;;1.00;1.00;20.40;99.90;;;;;;5012330;28;9111;-59
2022/05/28 02:04:20;;;;;;;;;1.00;1.00;20.50;99.90;;;;;;5019086;28;9106;-61
2022/05/28 02:06:50;;;;;;;;;1.00;1.00;20.30;99.90;;;;;;5014857;28;9006;-59
2022/05/28 02:09:27;;;;;;;;;1.00;1.00;20.20;99.90;;;;;;5016059;28;9272;-61
2022/05/28 02:12:14;;;;;;;;;0.00;0.00;20.10;99.90;;;;;;5015385;28;9202;-60
2022/05/28 02:15:02;;;;;;;;;0.00;0.00;20.10;99.90;;;;;;5007027;28;9075;-60
2022/05/28 02:17:52;;;;;;;;;0.67;0.67;20.20;99.90;;;;;;5017407;28;9280;-60
2022/05/28 02:20:35;;;;;;;;;1.00;1.00;19.90;99.90;;;;;;5015622;28;9440;-60
2022/05/28 02:23:29;;;;;;;;;1.00;1.00;19.80;99.90;;;;;;5013656;28;9475;-59
2022/05/28 02:26:12;;;;;;;;;1.00;1.00;19.80;99.90;;;;;;5015785;28;10039;-59
2022/05/28 02:28:44;;;;;;;;;1.00;1.00;19.70;99.90;;;;;;5013475;28;9151;-60
2022/05/28 02:31:21;;;;;;;;;1.00;1.00;19.60;99.90;;;;;;5017215;28;9346;-60
2022/05/28 02:33:51;;;;;;;;;0.00;0.00;19.50;99.90;;;;;;5012829;28;9619;-59
2022/05/28 02:36:24;;;;;;;;;1.00;1.00;19.50;99.90;;;;;;5016379;28;9410;-59
2022/05/28 02:38:54;;;;;;;;;1.00;1.00;19.50;99.90;;;;;;5011171;28;9398;-60
2022/05/28 02:41:25;;;;;;;;;1.00;1.00;19.50;99.90;;;;;;5014799;28;9449;-59
2022/05/28 02:43:56;;;;;;;;;1.00;1.00;19.40;99.90;;;;;;5010265;28;9527;-59
2022/05/28 02:46:26;;;;;;;;;1.00;1.00;19.20;99.90;;;;;;5013525;28;9726;-60
2022/05/28 02:48:57;;;;;;;;;1.00;1.00;19.30;99.90;;;;;;5014759;28;9630;-59
2022/05/28 02:51:27;;;;;;;;;1.00;1.00;19.30;99.90;;;;;;5013126;28;9504;-59
2022/05/28 02:53:58;;;;;;;;;1.00;1.00;19.20;99.90;;;;;;5008659;28;9537;-60
2022/05/28 02:56:28;;;;;;;;;1.00;1.00;19.10;99.90;;;;;;5015262;28;9735;-61
2022/05/28 02:58:58;;;;;;;;;1.00;1.00;18.90;99.90;;;;;;5011519;28;9780;-60
2022/05/28 03:01:33;;;;;;;;;0.00;0.00;19.10;99.90;;;;;;5014075;28;9504;-59
2022/05/28 03:04:05;;;;;;;;;0.75;0.75;19.20;99.90;;;;;;5017654;28;9461;-59
2022/05/28 03:06:35;;;;;;;;;1.00;1.00;19.10;99.90;;;;;;5014789;28;9578;-61
2022/05/28 03:09:08;;;;;;;;;1.00;1.00;19.00;99.90;;;;;;5014966;28;9939;-59
2022/05/28 03:11:38;;;;;;;;;0.00;0.00;19.00;99.90;;;;;;5015618;28;9880;-59
2022/05/28 03:14:08;;;;;;;;;2.50;1.00;19.00;99.90;;;;;;5007304;28;9634;-59
2022/05/28 03:16:42;;;;;;;;;0.00;0.00;18.90;99.90;;;;;;5014143;28;10032;-60
2022/05/28 03:19:13;;;;;;;;;0.00;0.00;18.90;99.90;;;;;;5016312;28;9757;-61
2022/05/28 03:21:43;;;;;;;;;1.00;1.00;19.00;99.90;;;;;;5012391;28;10381;-59
2022/05/28 03:24:13;;;;;;;;;0.00;0.00;18.80;99.90;;;;;;5013513;28;10040;-59
2022/05/28 03:26:43;;;;;;;;;0.25;0.25;18.90;99.90;;;;;;5015452;28;9964;-60
2022/05/28 03:29:13;;;;;;;;;0.75;0.75;18.80;99.90;;;;;;5016785;28;9942;-60
2022/05/28 03:31:43;;;;;;;;;0.00;0.00;18.80;99.90;;;;;;5013634;28;9805;-60
2022/05/28 03:34:13;;;;;;;;;0.00;0.00;18.80;99.90;;;;;;5012680;28;10644;-60
2022/05/28 03:36:42;;;;;;;;;0.75;0.00;18.80;99.90;;;;;;5015260;28;10933;-60
2022/05/28 03:39:13;;;;;;;;;0.00;0.00;18.80;99.90;;;;;;5015689;28;9931;-60
2022/05/28 03:41:43;;;;;;;;;0.75;0.75;18.70;99.90;;;;;;5015878;28;10000;-60
2022/05/28 03:44:14;;;;;;;;;0.00;0.00;18.60;99.90;;;;;;5014024;28;10093;-59
2022/05/28 03:46:44;;;;;;;;;0.75;0.75;18.60;99.90;;;;;;5015867;28;10270;-61
2022/05/28 03:49:27;;;;;;;;;0.00;0.00;18.60;99.90;;;;;;5014609;28;10211;-58
2022/05/28 03:51:57;;;;;;;;;1.00;1.00;18.60;99.90;;;;;;5019626;28;10148;-60
2022/05/28 03:54:29;;;;;;;;;1.00;1.00;18.50;99.90;;;;;;5013586;28;10347;-61
2022/05/28 03:57:06;;;;;;;;;1.50;1.50;18.60;99.90;;;;;;5012432;28;10307;-61
2022/05/28 03:59:36;;;;;;;;;1.00;1.00;18.60;99.90;;;;;;5012731;28;10458;-60
2022/05/28 04:02:07;;;;;;;;;2.75;2.75;18.60;99.90;;;;;;5017590;28;10303;-61
2022/05/28 04:04:38;;;;;;;;;2.00;2.00;18.50;99.90;;;;;;5007418;28;10479;-61
2022/05/28 04:07:10;;;;;;;;;2.00;2.00;18.40;99.90;;;;;;5010444;28;10331;-59
2022/05/28 04:09:41;;;;;;;;;2.00;2.00;18.50;99.90;;;;;;4996426;28;10293;-59
2022/05/28 04:12:13;;;;;;;;;2.00;2.00;18.50;99.90;;;;;;5000070;28;10401;-61
2022/05/28 04:14:44;;;;;;;;;12.75;11.50;18.40;99.90;;;;;;5008060;28;11078;-60
2022/05/28 04:17:15;;;;;;;;;3.00;3.00;18.40;99.90;;;;;;5014943;28;10814;-64
2022/05/28 04:19:45;;;;;;;;;1.75;1.75;18.40;99.90;;;;;;5007411;28;10204;-60
2022/05/28 04:22:17;;;;;;;;;2.00;2.00;18.30;99.90;;;;;;5013911;28;10236;-60
2022/05/28 04:24:46;;;;;;;;;2.00;2.00;18.30;99.90;;;;;;5014828;28;10199;-60
2022/05/28 04:27:17;;;;;;;;;1.75;1.75;18.30;99.90;;;;;;5021401;28;10272;-58
2022/05/28 04:29:49;;;;;;;;;2.75;2.75;18.30;99.90;;;;;;5026740;28;10074;-60
2022/05/28 04:32:21;;;;;;;;;1.75;1.75;18.30;99.90;;;;;;5008725;28;10242;-59
2022/05/28 04:34:51;;;;;;;;;1.25;1.25;18.20;99.90;;;;;;5006185;28;10110;-62
2022/05/28 04:37:21;;;;;;;;;1.00;1.00;18.20;99.90;;;;;;5012228;28;10264;-60
2022/05/28 04:39:51;;;;;;;;;0.75;0.75;18.10;99.90;;;;;;5015572;28;10006;-61
2022/05/28 04:42:21;;;;;;;;;1.75;1.75;18.10;99.90;;;;;;5024738;28;13485;-61
2022/05/28 04:44:50;;;;;;;;;2.00;2.00;18.00;99.90;;;;;;5010287;28;10747;-62
2022/05/28 04:47:20;;;;;;;;;0.75;0.75;18.00;99.90;;;;;;5020156;28;10108;-62
2022/05/28 04:49:51;;;;;;;;;0.25;0.25;17.90;99.90;;;;;;5029205;28;10022;-62
2022/05/28 04:52:22;;;;;;;;;0.50;0.50;17.90;99.90;;;;;;5019227;28;10059;-62
2022/05/28 04:54:52;;;;;;;;;0.00;0.00;17.80;99.90;;;;;;5015457;28;10402;-62
2022/05/28 04:57:23;;;;;;;;;0.00;0.00;17.80;99.90;;;;;;5020564;28;9930;-63
2022/05/28 04:59:54;;;;;;;;;0.00;0.00;17.90;99.90;;;;;;5012812;28;9907;-61
2022/05/28 05:02:24;;;;;;;;;0.00;0.00;17.80;99.90;;;;;;5015685;28;10071;-62
2022/05/28 05:04:57;;;;;;;;;0.00;0.00;17.70;99.90;;;;;;5016746;28;10230;-61
2022/05/28 05:07:31;;;;;;;;;0.00;0.00;17.80;99.90;;;;;;5017953;28;10557;-62
2022/05/28 05:10:01;;;;;;;;;0.00;0.00;17.80;99.90;;;;;;5005289;28;10096;-62
2022/05/28 05:12:33;;;;;;;;;0.00;0.00;17.80;99.90;;;;;;5016449;28;10051;-63
2022/05/28 05:15:08;;;;;;;;;0.00;0.00;17.70;99.90;;;;;;4997963;28;10002;-62
2022/05/28 05:17:39;;;;;;;;;0.00;0.00;17.70;99.90;;;;;;5016020;28;10343;-62
2022/05/28 05:20:13;;;;;;;;;0.00;0.00;17.60;99.90;;;;;;5013456;28;10029;-62
2022/05/28 05:22:44;;;;;;;;;0.00;0.00;17.70;99.90;;;;;;5019341;28;10020;-63
2022/05/28 05:25:17;;;;;;;;;0.00;0.00;17.70;99.90;;;;;;5018644;28;10094;-62
2022/05/28 05:27:47;;;;;;;;;0.00;0.00;17.70;99.90;;;;;;5020224;28;10173;-62
2022/05/28 05:30:17;;;;;;;;;0.00;0.00;17.60;99.90;;;;;;5014236;28;10168;-61
2022/05/28 05:32:47;;;;;;;;;0.00;0.00;17.60;99.90;;;;;;5019414;28;10209;-62
2022/05/28 05:35:18;;;;;;;;;0.00;0.00;17.50;99.90;;;;;;4995858;28;10235;-63
2022/05/28 05:37:48;;;;;;;;;1.00;0.00;17.50;99.90;;;;;;5011637;28;10374;-62
2022/05/28 05:40:21;;;;;;;;;0.00;0.00;17.40;99.90;;;;;;5019093;28;10582;-61
2022/05/28 05:42:52;;;;;;;;;0.00;0.00;17.40;99.90;;;;;;5017707;28;10890;-61
2022/05/28 05:45:21;;;;;;;;;0.00;0.00;17.40;99.90;;;;;;5013824;28;10675;-62
2022/05/28 05:47:54;;;;;;;;;0.00;0.00;17.40;99.90;;;;;;5002771;28;10661;-63
2022/05/28 05:50:24;;;;;;;;;0.25;0.25;17.50;99.90;;;;;;5015760;28;10909;-63
2022/05/28 05:52:54;;;;;;;;;0.50;0.50;17.40;99.90;;;;;;5013780;28;10839;-63
2022/05/28 05:55:27;;;;;;;;;0.00;0.00;17.40;99.90;;;;;;5017033;28;10743;-63
2022/05/28 05:57:57;;;;;;;;;0.00;0.00;17.50;99.90;;;;;;5016954;28;10594;-64
2022/05/28 06:00:31;;;;;;;;;0.00;0.00;17.50;99.90;;;;;;5017247;28;10399;-63
2022/05/28 06:03:01;;;;;;;;;0.00;0.00;17.50;99.90;;;;;;5015861;28;10457;-63
2022/05/28 06:05:31;;;;;;;;;0.00;0.00;17.50;99.90;;;;;;5007260;28;10727;-63
2022/05/28 06:08:01;;;;;;;;;0.00;0.00;17.40;99.90;;;;;;5017285;28;10607;-64
2022/05/28 06:10:31;;;;;;;;;0.25;0.25;17.40;99.90;;;;;;5014020;28;10719;-63
2022/05/28 06:13:02;;;;;;;;;0.50;0.50;17.40;99.90;;;;;;5015281;28;10598;-63
2022/05/28 06:15:32;;;;;;;;;0.25;0.25;17.30;99.90;;;;;;5012782;28;10520;-64
2022/05/28 06:18:02;;;;;;;;;0.00;0.00;17.30;99.90;;;;;;5019872;28;10691;-63
2022/05/28 06:20:34;;;;;;;;;0.25;0.25;17.30;99.90;;;;;;5007859;28;11597;-64
2022/05/28 06:23:05;;;;;;;;;0.00;0.00;17.30;99.90;;;;;;4996938;28;10590;-63
2022/05/28 06:25:41;;;;;;;;;0.75;0.75;17.30;99.90;;;;;;5018926;28;10802;-63
2022/05/28 06:28:11;;;;;;;;;1.50;1.50;17.30;99.90;;;;;;5024657;28;10759;-63
2022/05/28 06:30:43;;;;;;;;;1.75;1.75;17.30;99.90;;;;;;5015457;28;10897;-63
2022/05/28 06:33:15;;;;;;;;;2.75;2.75;17.30;99.90;;;;;;5018290;28;11055;-62
2022/05/28 06:35:45;;;;;;;;;3.50;3.50;17.20;99.90;;;;;;5019367;28;11009;-62
2022/05/28 06:38:16;;;;;;;;;4.00;4.00;17.20;99.90;;;;;;5015700;28;10973;-63
2022/05/28 06:40:46;;;;;;;;;4.00;4.00;17.20;99.90;;;;;;4998900;28;11687;-63
2022/05/28 06:43:17;;;;;;;;;3.25;3.25;17.20;99.90;;;;;;5016934;28;11076;-63
2022/05/28 06:45:49;;;;;;;;;2.75;2.75;17.20;99.90;;;;;;5015143;28;10977;-63
2022/05/28 06:48:19;;;;;;;;;2.25;2.25;17.20;99.90;;;;;;5001480;28;10869;-63
2022/05/28 06:51:03;;;;;;;;;2.75;2.75;17.20;99.90;;;;;;5026232;28;10779;-63
2022/05/28 06:53:37;;;;;;;;;3.00;3.00;17.20;99.90;;;;;;4999794;28;11708;-62
2022/05/28 06:56:10;;;;;;;;;7.25;7.25;17.10;99.90;;;;;;5011941;28;11237;-63
2022/05/28 06:58:41;;;;;;;;;8.25;8.25;17.10;99.90;;;;;;5033012;28;10717;-63
2022/05/28 07:01:12;;;;;;;;;10.50;10.50;17.10;99.90;;;;;;5015876;28;11861;-63
2022/05/28 07:03:43;;;;;;;;;9.75;9.75;17.20;99.90;;;;;;4996770;28;12039;-62
2022/05/28 07:06:15;;;;;;;;;8.00;8.00;17.10;99.90;;;;;;5004483;28;11217;-62
2022/05/28 07:08:46;;;;;;;;;5.75;5.75;17.10;99.90;;;;;;5019076;28;10759;-63
2022/05/28 07:11:18;;;;;;;;;6.75;6.75;17.10;99.90;;;;;;5009619;28;11590;-62
2022/05/28 07:13:49;;;;;;;;;8.00;8.00;17.10;99.90;;;;;;5014500;28;10538;-62
2022/05/28 07:16:20;;;;;;;;;7.00;7.00;17.10;99.90;;;;;;5010673;28;10651;-63
2022/05/28 07:18:49;;;;;;;;;9.50;9.50;17.10;99.90;;;;;;5016715;28;10622;-63
2022/05/28 07:21:20;;;;;;;;;9.25;9.25;17.00;99.90;;;;;;5014724;28;10598;-63
2022/05/28 07:23:51;;;;;;;;;8.25;8.25;17.00;99.90;;;;;;5024034;28;10591;-63
2022/05/28 07:26:21;;;;;;;;;9.25;9.25;17.00;99.90;;;;;;5018538;28;10621;-64
2022/05/28 07:28:52;;;;;;;;;10.00;10.00;16.90;99.90;;;;;;5027761;28;10845;-62
2022/05/28 07:31:23;;;;;;;;;9.75;9.75;17.00;99.90;;;;;;4999921;28;10861;-62
2022/05/28 07:33:54;;;;;;;;;7.25;7.25;17.00;99.90;;;;;;5016962;28;10926;-62
2022/05/28 07:36:25;;;;;;;;;8.50;8.50;17.00;99.90;;;;;;5016798;28;10532;-64
2022/05/28 07:38:55;;;;;;;;;8.25;8.25;16.90;99.90;;;;;;5008345;28;11143;-64
2022/05/28 07:41:26;;;;;;;;;7.00;7.00;16.90;99.90;;;;;;5015948;28;10529;-63
2022/05/28 07:44:00;;;;;;;;;6.50;6.50;16.90;99.90;;;;;;5017017;28;10796;-62
2022/05/28 07:46:32;;;;;;;;;6.50;6.50;17.00;99.90;;;;;;5006651;28;10626;-63
2022/05/28 07:49:04;;;;;;;;;7.25;7.25;17.00;99.90;;;;;;5019006;28;10571;-62
2022/05/28 07:51:36;;;;;;;;;7.00;7.00;17.00;99.90;;;;;;5014088;28;10574;-62
2022/05/28 07:54:07;;;;;;;;;5.75;5.75;17.00;99.90;;;;;;5018505;28;10447;-63
2022/05/28 07:56:37;;;;;;;;;6.75;6.75;17.00;99.90;;;;;;5015184;28;10775;-63
2022/05/28 07:59:07;;;;;;;;;5.50;5.50;17.00;99.90;;;;;;5006774;28;10694;-64
2022/05/28 08:01:39;;;;;;;;;6.25;6.25;17.00;99.90;;;;;;5012761;28;10279;-61
2022/05/28 08:04:11;;;;;;;;;5.00;5.00;17.00;99.90;;;;;;5015475;28;10538;-62
2022/05/28 08:06:41;;;;;;;;;4.75;4.75;17.00;99.90;;;;;;5017819;28;10455;-62
2022/05/28 08:09:12;;;;;;;;;5.00;5.00;17.00;99.90;;;;;;5006760;28;10377;-62
2022/05/28 08:11:43;;;;;;;;;5.00;5.00;17.00;99.90;;;;;;5015662;28;10656;-63
2022/05/28 08:14:12;;;;;;;;;3.25;3.00;17.00;99.90;;;;;;5015130;28;10414;-63
2022/05/28 08:16:42;;;;;;;;;3.00;3.00;17.00;99.90;;;;;;5011648;28;10271;-63
2022/05/28 08:19:13;;;;;;;;;3.00;3.00;17.00;99.90;;;;;;5014690;28;10352;-63
2022/05/28 08:24:35;;;;;;;;;2.75;2.75;17.00;99.90;;;;;;5019192;28;10464;-62
2022/05/28 08:27:04;;;;;;;;;3.00;3.00;16.90;99.90;;;;;;5023824;28;10457;-63
2022/05/28 08:29:35;;;;;;;;;4.00;4.00;16.90;99.90;;;;;;5016917;28;10452;-64
2022/05/28 08:32:07;;;;;;;;;2.00;2.00;16.90;99.90;;;;;;5022321;28;10519;-63
2022/05/28 08:34:41;;;;;;;;;2.00;2.00;17.00;99.90;;;;;;5022694;28;10274;-61
2022/05/28 08:37:11;;;;;;;;;2.50;2.50;17.00;99.90;;;;;;5023163;28;10395;-62
2022/05/28 08:39:43;;;;;;;;;2.00;2.00;17.00;99.90;;;;;;5012790;28;10563;-63
2022/05/28 08:42:14;;;;;;;;;2.00;2.00;16.90;99.90;;;;;;5025059;28;10494;-62
2022/05/28 08:44:45;;;;;;;;;1.75;1.75;16.90;99.90;;;;;;5016699;28;10494;-61
2022/05/28 08:47:25;;;;;;;;;1.75;1.75;17.00;99.90;;;;;;5015319;28;10294;-62
2022/05/28 08:49:55;;;;;;;;;1.50;1.50;16.90;99.90;;;;;;5023705;28;11327;-62
2022/05/28 08:52:39;;;;;;;;;1.25;1.25;16.90;99.90;;;;;;5020346;28;10358;-62
2022/05/28 08:55:17;;;;;;;;;1.00;1.00;16.90;99.90;;;;;;5013869;28;11057;-61
2022/05/28 08:57:53;;;;;;;;;1.00;1.00;16.90;99.90;;;;;;5017240;28;10676;-62
2022/05/28 09:00:44;;;;;;;;;1.00;1.00;16.90;99.90;;;;;;5014724;28;10431;-62
2022/05/28 09:03:17;;;;;;;;;1.00;1.00;16.90;99.90;;;;;;5016267;28;10401;-62
2022/05/28 09:06:07;;;;;;;;;1.00;1.00;16.90;99.90;;;;;;5022606;28;10457;-62
2022/05/28 09:08:46;;;;;;;;;1.00;1.00;17.00;99.90;;;;;;5016121;28;10559;-61
2022/05/28 09:11:25;;;;;;;;;1.00;1.00;17.00;99.90;;;;;;5017193;28;10403;-61
2022/05/28 09:13:56;;;;;;;;;1.00;1.00;16.90;99.90;;;;;;5019783;28;10348;-61
2022/05/28 09:16:34;;;;;;;;;1.00;1.00;16.90;99.90;;;;;;5015097;28;10437;-63
2022/05/28 09:19:14;;;;;;;;;1.00;1.00;17.00;99.90;;;;;;5022744;28;10482;-63
2022/05/28 09:21:47;;;;;;;;;1.25;1.25;16.90;99.90;;;;;;5035347;28;10484;-63
2022/05/28 09:24:26;;;;;;;;;0.75;0.75;16.80;99.90;;;;;;5015562;28;10524;-63
2022/05/28 09:27:21;;;;;;;;;1.00;1.00;16.90;99.90;;;;;;5018532;28;10632;-63
2022/05/28 09:30:11;;;;;;;;;1.00;1.00;16.90;99.90;;;;;;5011562;28;10639;-61
2022/05/28 09:32:56;;;;;;;;;1.00;1.00;16.90;99.90;;;;;;5015283;28;10560;-62
2022/05/28 09:35:48;;;;;;;;;0.00;0.00;16.90;99.90;;;;;;5015582;28;10374;-62
2022/05/28 09:38:21;;;;;;;;;0.25;0.25;16.90;99.90;;;;;;5028844;28;10544;-61
2022/05/28 09:41:29;;;;;;;;;0.00;0.00;16.90;99.90;;;;;;5030656;28;10632;-62
2022/05/28 09:44:03;;;;;;;;;1.00;1.00;16.90;99.90;;;;;;5006688;28;10350;-63
2022/05/28 09:46:37;;;;;;;;;0.25;0.25;16.90;99.90;;;;;;5017470;28;10608;-63
2022/05/28 09:49:14;;;;;;;;;1.00;1.00;16.90;99.90;;;;;;5018891;28;10531;-63
2022/05/28 09:51:56;;;;;;;;;1.00;1.00;16.90;99.90;;;;;;5015312;28;11274;-62
2022/05/28 09:54:33;;;;;;;;;0.00;0.00;16.90;99.90;;;;;;5012261;28;10661;-63
2022/05/28 09:57:10;;;;;;;;;0.50;0.50;16.90;99.90;;;;;;5017916;28;10433;-61
2022/05/28 09:59:52;;;;;;;;;1.00;1.00;16.90;99.90;;;;;;5014267;28;10596;-62
2022/05/28 10:04:28;;;;;;;;;0.50;0.50;16.90;99.90;;;;;;5017705;28;10590;-63
2022/05/28 10:05:46;;;;;;;;;0.50;0.50;16.90;99.90;;;;;;5016328;28;10589;-62
2022/05/28 10:08:17;;;;;;;;;1.00;1.00;16.90;99.90;;;;;;5017564;28;10841;-62
2022/05/28 10:10:56;;;;;;;;;1.50;1.50;16.90;99.90;;;;;;5016725;28;10541;-62
2022/05/28 10:13:30;;;;;;;;;0.75;0.75;16.90;99.90;;;;;;5015046;28;11449;-61
2022/05/28 10:16:06;;;;;;;;;0.75;0.75;16.90;99.90;;;;;;5010537;28;10468;-63
2022/05/28 10:18:59;;;;;;;;;0.50;0.50;16.80;99.90;;;;;;5023165;28;10598;-62
2022/05/28 10:21:38;;;;;;;;;1.25;1.25;16.90;99.90;;;;;;5015506;28;10695;-61
2022/05/28 10:24:19;;;;;;;;;1.50;1.50;16.80;99.90;;;;;;5013662;28;11305;-61
2022/05/28 10:27:01;;;;;;;;;2.50;2.50;16.80;99.90;;;;;;5013939;28;11143;-62
2022/05/28 10:29:49;;;;;;;;;2.50;2.50;16.70;99.90;;;;;;5018608;28;10681;-62
2022/05/28 10:32:28;;;;;;;;;2.00;2.00;16.80;99.90;;;;;;5011467;28;10695;-61
2022/05/28 10:35:07;;;;;;;;;2.75;2.75;16.80;99.90;;;;;;5015904;28;10882;-63
2022/05/28 10:37:38;;;;;;;;;3.75;3.75;16.80;99.90;;;;;;5011537;28;10852;-62
2022/05/28 10:40:33;;;;;;;;;3.50;3.50;16.80;99.90;;;;;;5019712;28;11600;-62
2022/05/28 10:43:06;;;;;;;;;3.00;3.00;16.80;99.90;;;;;;5019076;28;10912;-62
2022/05/28 10:45:51;;;;;;;;;2.75;2.75;16.80;99.90;;;;;;5012252;28;10839;-62
2022/05/28 10:48:33;;;;;;;;;2.50;2.50;16.80;99.90;;;;;;5013899;28;10661;-63
2022/05/28 10:51:41;;;;;;;;;2.75;2.75;16.80;99.90;;;;;;5017288;28;10758;-63
2022/05/28 10:54:12;;;;;;;;;3.50;3.50;16.80;99.90;;;;;;5013362;28;10750;-63
2022/05/28 10:57:17;;;;;;;;;2.50;2.50;16.80;99.90;;;;;;5016357;28;10684;-63
2022/05/28 11:00:02;;;;;;;;;4.75;4.75;16.80;99.90;;;;;;5005502;28;11512;-62
2022/05/28 11:03:01;;;;;;;;;7.50;7.50;16.70;99.90;;;;;;5020085;28;10907;-62
2022/05/28 11:05:50;;;;;;;;;13.25;13.25;16.70;99.90;;;;;;5015988;28;11193;-62
2022/05/28 11:08:46;;;;;;;;;14.00;14.00;16.70;99.90;;;;;;5014885;28;11147;-62
2022/05/28 11:11:55;;;;;;;;;15.00;15.00;16.70;99.90;;;;;;5009446;28;11496;-64
2022/05/28 11:14:41;;;;;;;;;16.50;16.50;16.70;99.90;;;;;;5014234;28;11230;-62
2022/05/28 11:17:27;;;;;;;;;17.00;17.00;16.70;99.90;;;;;;5018672;28;11456;-62
2022/05/28 11:20:18;;;;;;;;;17.00;17.00;16.70;99.90;;;;;;5025655;28;11496;-62
2022/05/28 11:22:54;;;;;;;;;17.25;17.25;16.60;99.90;;;;;;5029532;28;11193;-62
2022/05/28 11:25:37;;;;;;;;;16.50;16.50;16.60;99.90;;;;;;5006365;28;12300;-63
2022/05/28 11:28:45;;;;;;;;;16.25;16.25;16.70;99.90;;;;;;5029121;28;12120;-63
2022/05/28 11:31:45;;;;;;;;;17.25;17.25;16.70;99.90;;;;;;5010632;28;11563;-63
2022/05/28 11:34:53;;;;;;;;;15.75;15.75;16.70;99.90;;;;;;5012351;28;11311;-63
2022/05/28 11:37:54;;;;;;;;;16.75;16.75;16.70;99.90;;;;;;5006477;28;11137;-61
2022/05/28 11:40:31;;;;;;;;;16.75;16.75;16.70;99.90;;;;;;5008302;28;11566;-63
2022/05/28 11:43:09;;;;;;;;;14.00;14.00;16.70;99.90;;;;;;5017555;28;11468;-64
2022/05/28 11:46:13;;;;;;;;;12.75;12.75;16.70;99.90;;;;;;5010900;28;11068;-62
2022/05/28 11:52:21;;;;;;;;;12.25;12.25;16.70;99.90;;;;;;5018387;28;11153;-63
2022/05/28 11:54:58;;;;;;;;;10.50;10.50;16.70;99.90;;;;;;5016130;28;11119;-62
2022/05/28 11:57:41;;;;;;;;;6.25;6.25;16.70;99.90;;;;;;5016778;28;11130;-63
2022/05/28 12:00:14;;;;;;;;;6.50;6.50;16.70;99.90;;;;;;5023548;28;10745;-63
2022/05/28 12:02:53;;;;;;;;;4.25;4.25;16.70;99.90;;;;;;5016785;28;10863;-63
2022/05/28 12:05:39;;;;;;;;;6.75;6.75;16.70;99.90;;;;;;5015499;28;10930;-63
2022/05/28 12:08:29;;;;;;;;;7.50;7.50;16.60;99.90;;;;;;5025826;28;10982;-64
2022/05/28 12:11:40;;;;;;;;;7.25;7.25;16.60;99.90;;;;;;5011745;28;10979;-62
2022/05/28 12:14:29;;;;;;;;;8.00;8.00;16.60;99.90;;;;;;5028684;28;11038;-63
2022/05/28 12:17:06;;;;;;;;;7.00;7.00;16.70;99.90;;;;;;5017037;28;10869;-63
2022/05/28 12:20:01;;;;;;;;;5.50;5.50;16.70;99.90;;;;;;5010617;28;11493;-64
2022/05/28 12:22:31;;;;;;;;;6.50;6.50;16.70;99.90;;;;;;5016939;28;10886;-64
2022/05/28 12:25:08;;;;;;;;;5.25;5.25;16.70;99.90;;;;;;5017276;28;10684;-63
2022/05/28 12:28:02;;;;;;;;;5.25;5.25;16.70;99.90;;;;;;5011216;28;10902;-63
2022/05/28 12:30:41;;;;;;;;;5.00;5.00;16.70;99.90;;;;;;5006140;28;11140;-64
2022/05/28 12:33:22;;;;;;;;;4.50;4.50;16.70;99.90;;;;;;5010721;28;10971;-63
2022/05/28 12:36:17;;;;;;;;;3.75;3.75;16.70;99.90;;;;;;5011741;28;11118;-63
2022/05/28 12:38:56;;;;;;;;;3.75;3.75;16.70;99.90;;;;;;5023282;28;10845;-63
2022/05/28 12:41:33;;;;;;;;;2.75;2.75;16.70;99.90;;;;;;5014464;28;10888;-64
2022/05/28 12:44:24;;;;;;;;;3.50;3.50;16.80;99.90;;;;;;5026774;28;10889;-62
2022/05/28 12:46:59;;;;;;;;;4.00;4.00;16.70;99.90;;;;;;5017324;28;11188;-62
2022/05/28 12:49:44;;;;;;;;;3.50;3.50;16.70;99.90;;;;;;5011636;28;11599;-63
2022/05/28 12:52:21;;;;;;;;;3.50;3.50;16.70;99.90;;;;;;5015181;28;11007;-63
2022/05/28 12:55:29;;;;;;;;;3.75;3.75;16.70;99.90;;;;;;5017049;28;10982;-63
2022/05/28 12:58:12;;;;;;;;;5.00;5.00;16.70;99.90;;;;;;5012120;28;10890;-64
2022/05/28 13:00:54;;;;;;;;;5.25;5.25;16.70;99.90;;;;;;5014159;28;10934;-63
2022/05/28 13:03:29;;;;;;;;;4.75;4.75;16.70;99.90;;;;;;5014354;28;10771;-62
2022/05/28 13:06:15;;;;;;;;;3.50;3.50;16.70;99.90;;;;;;5010069;28;10943;-62
2022/05/28 13:09:00;;;;;;;;;2.75;2.75;16.70;99.90;;;;;;5014211;28;11094;-63
2022/05/28 13:11:53;;;;;;;;;3.00;3.00;16.70;99.90;;;;;;5015737;28;11000;-63
2022/05/28 13:14:34;;;;;;;;;3.50;3.50;16.70;99.90;;;;;;5017504;28;11605;-64
2022/05/28 13:17:22;;;;;;;;;3.50;3.50;16.70;99.90;;;;;;5030428;28;11155;-64
2022/05/28 13:20:06;;;;;;;;;2.75;2.75;16.70;99.90;;;;;;5016147;28;10844;-62
2022/05/28 13:22:47;;;;;;;;;2.75;2.75;16.70;99.90;;;;;;5019644;28;11413;-63
2022/05/28 13:25:49;;;;;;;;;2.75;2.75;16.70;99.90;;;;;;5010175;28;10842;-62
2022/05/28 13:28:49;;;;;;;;;2.00;2.00;16.70;99.90;;;;;;5017274;28;10853;-64
2022/05/28 13:31:30;;;;;;;;;2.75;2.75;16.70;99.90;;;;;;5016269;28;10665;-63
2022/05/28 13:34:01;;;;;;;;;2.75;2.75;16.70;99.90;;;;;;5019031;28;11482;-63
2022/05/28 13:36:35;;;;;;;;;2.25;2.25;16.70;99.90;;;;;;5019890;28;10668;-64
2022/05/28 13:39:08;;;;;;;;;3.00;3.00;16.70;99.90;;;;;;5013487;28;10531;-62
2022/05/28 13:41:44;;;;;;;;;2.00;2.00;16.70;99.90;;;;;;5015296;28;10610;-63
2022/05/28 13:44:22;;;;;;;;;2.50;2.50;16.70;99.90;;;;;;5012062;28;10678;-63